Terminal Aerodrome Forecast
Issued by NWS

Current Version | Previous Version | Text Only | Print | Product List | Glossary On
Versions: 1 2 3 4 5 6 7 8 9 10 11 12 13 14 15 16 17 18 19 20
000
FTUS45 KTFX 022320
TAFGTF
TAF
KGTF 022320Z 0300/0324 08010G15KT P6SM SCT100
     FM031000 21006KT P6SM SKC
     FM031500 21006KT P6SM BKN250
     FM031800 16006KT P6SM SCT100 BKN250
     FM032200 VRB06KT P6SM FEW100=

USA.gov is the U.S. government's official web portal to all federal, state and local government web resources and services.